sensor_id;sensor_type;location;lat;lon;timestamp;P1;durP1;ratioP1;P2;durP2;ratioP2
26098;SDS011;13860;52.370;6.764;2022-08-02T00:02:54;8.23;;;2.33;;
26098;SDS011;13860;52.370;6.764;2022-08-02T00:05:59;6.82;;;2.15;;
26098;SDS011;13860;52.370;6.764;2022-08-02T00:09:05;8.90;;;2.10;;
26098;SDS011;13860;52.370;6.764;2022-08-02T00:12:12;10.13;;;2.33;;
26098;SDS011;13860;52.370;6.764;2022-08-02T00:15:17;7.15;;;2.08;;
26098;SDS011;13860;52.370;6.764;2022-08-02T00:18:22;5.32;;;2.15;;
26098;SDS011;13860;52.370;6.764;2022-08-02T00:21:27;3.90;;;2.05;;
26098;SDS011;13860;52.370;6.764;2022-08-02T00:24:32;8.93;;;2.03;;
26098;SDS011;13860;52.370;6.764;2022-08-02T00:27:40;7.72;;;2.38;;
26098;SDS011;13860;52.370;6.764;2022-08-02T00:30:45;3.67;;;2.53;;
26098;SDS011;13860;52.370;6.764;2022-08-02T00:33:50;8.20;;;2.40;;
26098;SDS011;13860;52.370;6.764;2022-08-02T00:37:15;4.05;;;1.80;;
26098;SDS011;13860;52.370;6.764;2022-08-02T00:40:21;3.92;;;2.03;;
26098;SDS011;13860;52.370;6.764;2022-08-02T00:43:29;6.47;;;2.20;;
26098;SDS011;13860;52.370;6.764;2022-08-02T00:46:35;5.63;;;2.40;;
26098;SDS011;13860;52.370;6.764;2022-08-02T00:49:40;5.78;;;2.42;;
26098;SDS011;13860;52.370;6.764;2022-08-02T00:52:45;14.10;;;3.20;;
26098;SDS011;13860;52.370;6.764;2022-08-02T00:55:50;6.88;;;2.50;;
26098;SDS011;13860;52.370;6.764;2022-08-02T00:58:57;8.38;;;2.55;;
26098;SDS011;13860;52.370;6.764;2022-08-02T01:02:02;6.43;;;2.00;;
26098;SDS011;13860;52.370;6.764;2022-08-02T01:05:08;4.32;;;2.88;;
26098;SDS011;13860;52.370;6.764;2022-08-02T01:08:13;8.65;;;2.17;;
26098;SDS011;13860;52.370;6.764;2022-08-02T01:11:18;6.85;;;2.30;;
26098;SDS011;13860;52.370;6.764;2022-08-02T01:14:26;7.57;;;2.30;;
26098;SDS011;13860;52.370;6.764;2022-08-02T01:17:31;3.10;;;1.83;;
26098;SDS011;13860;52.370;6.764;2022-08-02T01:20:47;6.82;;;2.65;;
26098;SDS011;13860;52.370;6.764;2022-08-02T01:24:15;7.78;;;2.42;;
26098;SDS011;13860;52.370;6.764;2022-08-02T01:27:30;5.13;;;2.78;;
26098;SDS011;13860;52.370;6.764;2022-08-02T01:30:45;6.10;;;2.63;;
26098;SDS011;13860;52.370;6.764;2022-08-02T01:33:58;4.90;;;2.22;;
26098;SDS011;13860;52.370;6.764;2022-08-02T01:37:09;9.15;;;2.40;;
26098;SDS011;13860;52.370;6.764;2022-08-02T01:40:20;8.00;;;2.53;;
26098;SDS011;13860;52.370;6.764;2022-08-02T01:43:29;8.20;;;2.63;;
26098;SDS011;13860;52.370;6.764;2022-08-02T01:46:40;9.20;;;2.45;;
26098;SDS011;13860;52.370;6.764;2022-08-02T01:49:49;5.43;;;2.30;;
26098;SDS011;13860;52.370;6.764;2022-08-02T01:52:59;5.43;;;2.13;;
26098;SDS011;13860;52.370;6.764;2022-08-02T01:56:07;7.78;;;2.40;;
26098;SDS011;13860;52.370;6.764;2022-08-02T01:59:16;6.97;;;2.47;;
26098;SDS011;13860;52.370;6.764;2022-08-02T02:02:26;6.85;;;3.05;;
26098;SDS011;13860;52.370;6.764;2022-08-02T02:05:34;6.30;;;2.67;;
26098;SDS011;13860;52.370;6.764;2022-08-02T02:08:41;9.85;;;3.00;;
26098;SDS011;13860;52.370;6.764;2022-08-02T02:11:47;5.13;;;2.85;;
26098;SDS011;13860;52.370;6.764;2022-08-02T02:15:14;9.93;;;2.95;;
26098;SDS011;13860;52.370;6.764;2022-08-02T02:18:22;6.22;;;2.50;;
26098;SDS011;13860;52.370;6.764;2022-08-02T02:21:28;5.28;;;2.90;;
26098;SDS011;13860;52.370;6.764;2022-08-02T02:24:36;6.90;;;2.97;;
26098;SDS011;13860;52.370;6.764;2022-08-02T02:27:42;10.00;;;3.53;;
26098;SDS011;13860;52.370;6.764;2022-08-02T02:30:54;13.60;;;3.55;;
26098;SDS011;13860;52.370;6.764;2022-08-02T02:34:07;13.65;;;4.03;;
26098;SDS011;13860;52.370;6.764;2022-08-02T02:37:16;8.85;;;3.53;;
26098;SDS011;13860;52.370;6.764;2022-08-02T02:40:23;9.43;;;3.65;;
26098;SDS011;13860;52.370;6.764;2022-08-02T02:43:31;9.77;;;3.72;;
26098;SDS011;13860;52.370;6.764;2022-08-02T02:46:37;8.30;;;3.42;;
26098;SDS011;13860;52.370;6.764;2022-08-02T02:49:46;10.60;;;3.80;;
26098;SDS011;13860;52.370;6.764;2022-08-02T02:52:54;9.55;;;3.67;;
26098;SDS011;13860;52.370;6.764;2022-08-02T02:56:00;11.85;;;4.20;;
26098;SDS011;13860;52.370;6.764;2022-08-02T02:59:06;7.60;;;4.13;;
26098;SDS011;13860;52.370;6.764;2022-08-02T03:02:12;13.73;;;4.03;;
26098;SDS011;13860;52.370;6.764;2022-08-02T03:05:20;11.38;;;4.15;;
26098;SDS011;13860;52.370;6.764;2022-08-02T03:08:25;11.25;;;3.97;;
26098;SDS011;13860;52.370;6.764;2022-08-02T03:11:30;7.90;;;4.03;;
26098;SDS011;13860;52.370;6.764;2022-08-02T03:14:39;10.30;;;4.13;;
26098;SDS011;13860;52.370;6.764;2022-08-02T03:17:50;9.87;;;4.77;;
26098;SDS011;13860;52.370;6.764;2022-08-02T03:20:59;10.52;;;4.65;;
26098;SDS011;13860;52.370;6.764;2022-08-02T03:24:05;8.82;;;4.25;;
26098;SDS011;13860;52.370;6.764;2022-08-02T03:27:10;9.70;;;4.07;;
26098;SDS011;13860;52.370;6.764;2022-08-02T03:30:15;8.52;;;4.00;;
26098;SDS011;13860;52.370;6.764;2022-08-02T03:33:20;11.88;;;4.10;;
26098;SDS011;13860;52.370;6.764;2022-08-02T03:36:30;13.50;;;5.03;;
26098;SDS011;13860;52.370;6.764;2022-08-02T03:39:36;10.35;;;4.30;;
26098;SDS011;13860;52.370;6.764;2022-08-02T03:42:53;10.02;;;5.10;;
26098;SDS011;13860;52.370;6.764;2022-08-02T03:45:58;9.00;;;4.60;;
26098;SDS011;13860;52.370;6.764;2022-08-02T03:49:04;13.75;;;4.38;;
26098;SDS011;13860;52.370;6.764;2022-08-02T03:52:13;9.25;;;5.25;;
26098;SDS011;13860;52.370;6.764;2022-08-02T03:55:19;10.93;;;3.90;;
26098;SDS011;13860;52.370;6.764;2022-08-02T03:58:24;8.15;;;4.05;;
26098;SDS011;13860;52.370;6.764;2022-08-02T04:01:29;10.40;;;4.05;;
26098;SDS011;13860;52.370;6.764;2022-08-02T04:04:34;10.02;;;4.43;;
26098;SDS011;13860;52.370;6.764;2022-08-02T04:07:42;9.65;;;4.30;;
26098;SDS011;13860;52.370;6.764;2022-08-02T04:11:08;12.10;;;4.53;;
26098;SDS011;13860;52.370;6.764;2022-08-02T04:14:26;8.52;;;4.50;;
26098;SDS011;13860;52.370;6.764;2022-08-02T04:17:39;9.88;;;5.10;;
26098;SDS011;13860;52.370;6.764;2022-08-02T04:20:46;9.63;;;4.57;;
26098;SDS011;13860;52.370;6.764;2022-08-02T04:23:55;7.60;;;4.78;;
26098;SDS011;13860;52.370;6.764;2022-08-02T04:27:04;8.25;;;4.45;;
26098;SDS011;13860;52.370;6.764;2022-08-02T04:30:31;10.60;;;5.07;;
26098;SDS011;13860;52.370;6.764;2022-08-02T04:33:37;10.93;;;5.13;;
26098;SDS011;13860;52.370;6.764;2022-08-02T04:36:42;12.65;;;4.88;;
26098;SDS011;13860;52.370;6.764;2022-08-02T04:39:50;14.20;;;5.05;;
26098;SDS011;13860;52.370;6.764;2022-08-02T04:42:56;11.32;;;5.05;;
26098;SDS011;13860;52.370;6.764;2022-08-02T04:46:01;9.57;;;5.20;;
26098;SDS011;13860;52.370;6.764;2022-08-02T04:49:06;10.82;;;5.53;;
26098;SDS011;13860;52.370;6.764;2022-08-02T04:52:12;14.05;;;5.68;;
26098;SDS011;13860;52.370;6.764;2022-08-02T04:55:19;7.60;;;4.70;;
26098;SDS011;13860;52.370;6.764;2022-08-02T04:58:29;13.10;;;5.10;;
26098;SDS011;13860;52.370;6.764;2022-08-02T05:01:41;7.00;;;4.28;;
26098;SDS011;13860;52.370;6.764;2022-08-02T05:04:46;10.23;;;4.57;;
26098;SDS011;13860;52.370;6.764;2022-08-02T05:07:52;9.18;;;4.07;;
26098;SDS011;13860;52.370;6.764;2022-08-02T05:10:59;9.73;;;4.93;;
26098;SDS011;13860;52.370;6.764;2022-08-02T05:14:05;13.52;;;5.82;;
26098;SDS011;13860;52.370;6.764;2022-08-02T05:17:10;14.48;;;4.60;;
26098;SDS011;13860;52.370;6.764;2022-08-02T05:20:15;12.02;;;4.05;;
26098;SDS011;13860;52.370;6.764;2022-08-02T05:23:20;10.27;;;4.63;;
26098;SDS011;13860;52.370;6.764;2022-08-02T05:26:28;12.30;;;5.57;;
26098;SDS011;13860;52.370;6.764;2022-08-02T05:29:33;16.52;;;6.43;;
26098;SDS011;13860;52.370;6.764;2022-08-02T05:32:41;11.95;;;5.38;;
26098;SDS011;13860;52.370;6.764;2022-08-02T05:35:51;13.25;;;4.63;;
26098;SDS011;13860;52.370;6.764;2022-08-02T05:38:56;11.75;;;5.15;;
26098;SDS011;13860;52.370;6.764;2022-08-02T05:42:13;10.75;;;5.32;;
26098;SDS011;13860;52.370;6.764;2022-08-02T05:45:18;13.70;;;4.57;;
26098;SDS011;13860;52.370;6.764;2022-08-02T05:48:23;13.98;;;4.75;;
26098;SDS011;13860;52.370;6.764;2022-08-02T05:51:34;20.10;;;5.85;;
26098;SDS011;13860;52.370;6.764;2022-08-02T05:54:45;8.85;;;4.38;;
26098;SDS011;13860;52.370;6.764;2022-08-02T05:57:57;7.80;;;4.43;;
26098;SDS011;13860;52.370;6.764;2022-08-02T06:01:09;11.00;;;4.82;;
26098;SDS011;13860;52.370;6.764;2022-08-02T06:04:23;19.02;;;4.72;;
26098;SDS011;13860;52.370;6.764;2022-08-02T06:07:31;7.95;;;4.18;;
26098;SDS011;13860;52.370;6.764;2022-08-02T06:10:39;11.35;;;4.80;;
26098;SDS011;13860;52.370;6.764;2022-08-02T06:13:49;8.48;;;4.03;;
26098;SDS011;13860;52.370;6.764;2022-08-02T06:16:55;10.48;;;4.55;;
26098;SDS011;13860;52.370;6.764;2022-08-02T06:20:00;10.00;;;4.47;;
26098;SDS011;13860;52.370;6.764;2022-08-02T06:23:06;12.13;;;4.18;;
26098;SDS011;13860;52.370;6.764;2022-08-02T06:26:14;12.60;;;5.07;;
26098;SDS011;13860;52.370;6.764;2022-08-02T06:29:23;13.00;;;4.20;;
26098;SDS011;13860;52.370;6.764;2022-08-02T06:32:28;8.85;;;4.22;;
26098;SDS011;13860;52.370;6.764;2022-08-02T06:35:39;19.88;;;4.30;;
26098;SDS011;13860;52.370;6.764;2022-08-02T06:38:51;12.10;;;3.95;;
26098;SDS011;13860;52.370;6.764;2022-08-02T06:42:01;14.10;;;4.30;;
26098;SDS011;13860;52.370;6.764;2022-08-02T06:45:19;10.57;;;3.58;;
26098;SDS011;13860;52.370;6.764;2022-08-02T06:48:24;15.63;;;3.67;;
26098;SDS011;13860;52.370;6.764;2022-08-02T06:51:29;12.23;;;3.83;;
26098;SDS011;13860;52.370;6.764;2022-08-02T06:54:35;8.68;;;4.07;;
26098;SDS011;13860;52.370;6.764;2022-08-02T06:57:42;6.60;;;3.47;;
26098;SDS011;13860;52.370;6.764;2022-08-02T07:00:50;7.55;;;3.45;;
26098;SDS011;13860;52.370;6.764;2022-08-02T07:03:55;10.90;;;3.97;;
26098;SDS011;13860;52.370;6.764;2022-08-02T07:07:00;11.55;;;2.65;;
26098;SDS011;13860;52.370;6.764;2022-08-02T07:10:06;7.50;;;3.28;;
26098;SDS011;13860;52.370;6.764;2022-08-02T07:13:11;5.50;;;2.53;;
26098;SDS011;13860;52.370;6.764;2022-08-02T07:16:19;10.52;;;2.95;;
26098;SDS011;13860;52.370;6.764;2022-08-02T07:19:24;12.63;;;2.70;;
26098;SDS011;13860;52.370;6.764;2022-08-02T07:25:44;10.88;;;3.03;;
26098;SDS011;13860;52.370;6.764;2022-08-02T07:29:04;10.60;;;3.75;;
26098;SDS011;13860;52.370;6.764;2022-08-02T07:32:12;15.38;;;3.10;;
26098;SDS011;13860;52.370;6.764;2022-08-02T07:35:17;14.15;;;3.25;;
26098;SDS011;13860;52.370;6.764;2022-08-02T07:38:23;9.43;;;3.05;;
26098;SDS011;13860;52.370;6.764;2022-08-02T07:41:28;15.15;;;3.08;;
26098;SDS011;13860;52.370;6.764;2022-08-02T07:44:33;13.00;;;3.00;;
26098;SDS011;13860;52.370;6.764;2022-08-02T07:47:41;8.63;;;2.88;;
26098;SDS011;13860;52.370;6.764;2022-08-02T07:50:47;8.25;;;3.40;;
26098;SDS011;13860;52.370;6.764;2022-08-02T07:53:52;8.82;;;2.83;;
26098;SDS011;13860;52.370;6.764;2022-08-02T07:57:04;10.00;;;2.78;;
26098;SDS011;13860;52.370;6.764;2022-08-02T08:00:09;10.13;;;2.85;;
26098;SDS011;13860;52.370;6.764;2022-08-02T08:03:19;12.05;;;3.42;;
26098;SDS011;13860;52.370;6.764;2022-08-02T08:06:24;7.35;;;3.08;;
26098;SDS011;13860;52.370;6.764;2022-08-02T08:09:30;12.27;;;3.08;;
26098;SDS011;13860;52.370;6.764;2022-08-02T08:12:35;10.23;;;2.65;;
26098;SDS011;13860;52.370;6.764;2022-08-02T08:15:40;5.57;;;2.35;;
26098;SDS011;13860;52.370;6.764;2022-08-02T08:18:55;8.50;;;2.50;;
26098;SDS011;13860;52.370;6.764;2022-08-02T08:22:01;9.32;;;3.20;;
26098;SDS011;13860;52.370;6.764;2022-08-02T08:25:06;4.57;;;2.33;;
26098;SDS011;13860;52.370;6.764;2022-08-02T08:28:12;6.45;;;1.83;;
26098;SDS011;13860;52.370;6.764;2022-08-02T08:31:17;5.63;;;2.00;;
26098;SDS011;13860;52.370;6.764;2022-08-02T08:34:25;8.32;;;2.28;;
26098;SDS011;13860;52.370;6.764;2022-08-02T08:37:32;6.90;;;2.08;;
26098;SDS011;13860;52.370;6.764;2022-08-02T08:40:37;3.40;;;1.70;;
26098;SDS011;13860;52.370;6.764;2022-08-02T08:43:43;4.35;;;1.83;;
26098;SDS011;13860;52.370;6.764;2022-08-02T08:46:53;7.28;;;1.60;;
26098;SDS011;13860;52.370;6.764;2022-08-02T08:50:03;5.85;;;1.90;;
26098;SDS011;13860;52.370;6.764;2022-08-02T08:53:20;8.25;;;2.00;;
26098;SDS011;13860;52.370;6.764;2022-08-02T08:56:37;8.20;;;1.55;;
26098;SDS011;13860;52.370;6.764;2022-08-02T08:59:43;3.10;;;1.10;;
26098;SDS011;13860;52.370;6.764;2022-08-02T09:02:49;2.38;;;1.15;;
26098;SDS011;13860;52.370;6.764;2022-08-02T09:05:58;5.28;;;1.33;;
26098;SDS011;13860;52.370;6.764;2022-08-02T09:09:05;3.95;;;1.67;;
26098;SDS011;13860;52.370;6.764;2022-08-02T09:12:13;3.28;;;1.52;;
26098;SDS011;13860;52.370;6.764;2022-08-02T09:15:20;8.38;;;1.83;;
26098;SDS011;13860;52.370;6.764;2022-08-02T09:18:28;3.25;;;1.65;;
26098;SDS011;13860;52.370;6.764;2022-08-02T09:21:37;9.13;;;1.95;;
26098;SDS011;13860;52.370;6.764;2022-08-02T09:24:43;4.20;;;1.67;;
26098;SDS011;13860;52.370;6.764;2022-08-02T09:27:49;6.32;;;1.90;;
26098;SDS011;13860;52.370;6.764;2022-08-02T09:30:55;11.52;;;1.90;;
26098;SDS011;13860;52.370;6.764;2022-08-02T09:34:01;7.18;;;2.00;;
26098;SDS011;13860;52.370;6.764;2022-08-02T09:37:09;9.82;;;2.45;;
26098;SDS011;13860;52.370;6.764;2022-08-02T09:40:33;3.97;;;1.83;;
26098;SDS011;13860;52.370;6.764;2022-08-02T09:47:12;13.40;;;3.15;;
26098;SDS011;13860;52.370;6.764;2022-08-02T09:50:18;5.45;;;2.50;;
26098;SDS011;13860;52.370;6.764;2022-08-02T09:53:25;7.75;;;2.72;;
26098;SDS011;13860;52.370;6.764;2022-08-02T09:56:39;6.72;;;2.17;;
26098;SDS011;13860;52.370;6.764;2022-08-02T09:59:51;7.00;;;3.03;;
26098;SDS011;13860;52.370;6.764;2022-08-02T10:03:06;8.63;;;2.25;;
26098;SDS011;13860;52.370;6.764;2022-08-02T10:06:23;4.70;;;2.28;;
26098;SDS011;13860;52.370;6.764;2022-08-02T10:09:31;7.05;;;2.83;;
26098;SDS011;13860;52.370;6.764;2022-08-02T10:12:43;6.15;;;2.58;;
26098;SDS011;13860;52.370;6.764;2022-08-02T10:15:48;3.25;;;2.25;;
26098;SDS011;13860;52.370;6.764;2022-08-02T10:18:54;8.13;;;2.67;;
26098;SDS011;13860;52.370;6.764;2022-08-02T10:22:03;4.00;;;2.72;;
26098;SDS011;13860;52.370;6.764;2022-08-02T10:25:12;6.85;;;2.72;;
26098;SDS011;13860;52.370;6.764;2022-08-02T10:28:17;4.28;;;2.42;;
26098;SDS011;13860;52.370;6.764;2022-08-02T10:31:27;6.38;;;2.33;;
26098;SDS011;13860;52.370;6.764;2022-08-02T10:34:40;5.20;;;2.58;;
26098;SDS011;13860;52.370;6.764;2022-08-02T10:41:00;5.93;;;2.17;;
26098;SDS011;13860;52.370;6.764;2022-08-02T10:44:05;3.38;;;2.08;;
26098;SDS011;13860;52.370;6.764;2022-08-02T10:47:25;2.78;;;2.28;;
26098;SDS011;13860;52.370;6.764;2022-08-02T10:54:06;5.22;;;2.33;;
26098;SDS011;13860;52.370;6.764;2022-08-02T10:57:18;6.57;;;2.22;;
26098;SDS011;13860;52.370;6.764;2022-08-02T11:00:25;4.28;;;1.83;;
26098;SDS011;13860;52.370;6.764;2022-08-02T11:03:38;4.53;;;2.20;;
26098;SDS011;13860;52.370;6.764;2022-08-02T11:17:10;4.40;;;1.80;;
26098;SDS011;13860;52.370;6.764;2022-08-02T11:20:17;5.82;;;1.60;;
26098;SDS011;13860;52.370;6.764;2022-08-02T11:23:33;3.47;;;1.67;;
26098;SDS011;13860;52.370;6.764;2022-08-02T11:26:46;6.20;;;1.80;;
26098;SDS011;13860;52.370;6.764;2022-08-02T11:29:54;3.22;;;1.73;;
26098;SDS011;13860;52.370;6.764;2022-08-02T11:32:59;3.45;;;1.52;;
26098;SDS011;13860;52.370;6.764;2022-08-02T11:36:05;7.13;;;1.58;;
26098;SDS011;13860;52.370;6.764;2022-08-02T11:39:10;8.73;;;2.22;;
26098;SDS011;13860;52.370;6.764;2022-08-02T11:42:16;3.80;;;1.83;;
26098;SDS011;13860;52.370;6.764;2022-08-02T11:45:25;3.47;;;1.80;;
26098;SDS011;13860;52.370;6.764;2022-08-02T11:48:31;5.70;;;1.73;;
26098;SDS011;13860;52.370;6.764;2022-08-02T11:51:37;8.02;;;2.03;;
26098;SDS011;13860;52.370;6.764;2022-08-02T11:54:43;4.90;;;2.03;;
26098;SDS011;13860;52.370;6.764;2022-08-02T11:57:48;7.10;;;1.88;;
26098;SDS011;13860;52.370;6.764;2022-08-02T12:01:08;2.85;;;1.50;;
26098;SDS011;13860;52.370;6.764;2022-08-02T12:04:16;2.92;;;1.92;;
26098;SDS011;13860;52.370;6.764;2022-08-02T12:07:27;4.20;;;1.90;;
26098;SDS011;13860;52.370;6.764;2022-08-02T12:10:36;2.60;;;1.70;;
26098;SDS011;13860;52.370;6.764;2022-08-02T12:13:50;2.00;;;1.40;;
26098;SDS011;13860;52.370;6.764;2022-08-02T12:17:00;1.85;;;1.40;;
26098;SDS011;13860;52.370;6.764;2022-08-02T12:20:18;2.85;;;1.40;;
26098;SDS011;13860;52.370;6.764;2022-08-02T12:23:23;2.72;;;1.35;;
26098;SDS011;13860;52.370;6.764;2022-08-02T12:26:28;7.28;;;1.60;;
26098;SDS011;13860;52.370;6.764;2022-08-02T12:29:34;2.95;;;1.30;;
26098;SDS011;13860;52.370;6.764;2022-08-02T12:33:09;2.92;;;1.23;;
26098;SDS011;13860;52.370;6.764;2022-08-02T12:36:14;3.35;;;1.40;;
26098;SDS011;13860;52.370;6.764;2022-08-02T12:39:19;3.88;;;1.15;;
26098;SDS011;13860;52.370;6.764;2022-08-02T12:42:30;9.32;;;1.75;;
26098;SDS011;13860;52.370;6.764;2022-08-02T12:45:50;1.30;;;0.85;;
26098;SDS011;13860;52.370;6.764;2022-08-02T12:49:00;1.90;;;1.20;;
26098;SDS011;13860;52.370;6.764;2022-08-02T12:52:19;2.75;;;0.88;;
26098;SDS011;13860;52.370;6.764;2022-08-02T12:55:25;2.20;;;1.00;;
26098;SDS011;13860;52.370;6.764;2022-08-02T12:58:50;4.35;;;1.00;;
26098;SDS011;13860;52.370;6.764;2022-08-02T13:01:59;2.22;;;1.05;;
26098;SDS011;13860;52.370;6.764;2022-08-02T13:05:08;3.75;;;1.25;;
26098;SDS011;13860;52.370;6.764;2022-08-02T13:08:13;3.22;;;1.05;;
26098;SDS011;13860;52.370;6.764;2022-08-02T13:11:18;3.78;;;0.95;;
26098;SDS011;13860;52.370;6.764;2022-08-02T13:14:24;1.67;;;0.80;;
26098;SDS011;13860;52.370;6.764;2022-08-02T13:17:29;4.70;;;1.60;;
26098;SDS011;13860;52.370;6.764;2022-08-02T13:20:36;1.23;;;0.98;;
26098;SDS011;13860;52.370;6.764;2022-08-02T13:23:46;1.23;;;0.98;;
26098;SDS011;13860;52.370;6.764;2022-08-02T13:26:55;2.88;;;1.27;;
26098;SDS011;13860;52.370;6.764;2022-08-02T13:30:06;4.35;;;1.02;;
26098;SDS011;13860;52.370;6.764;2022-08-02T13:33:11;1.48;;;1.10;;
26098;SDS011;13860;52.370;6.764;2022-08-02T13:36:19;3.17;;;1.42;;
26098;SDS011;13860;52.370;6.764;2022-08-02T13:39:24;2.00;;;0.98;;
26098;SDS011;13860;52.370;6.764;2022-08-02T13:42:29;6.10;;;1.30;;
26098;SDS011;13860;52.370;6.764;2022-08-02T13:45:34;3.85;;;1.48;;
26098;SDS011;13860;52.370;6.764;2022-08-02T13:48:39;1.90;;;1.17;;
26098;SDS011;13860;52.370;6.764;2022-08-02T13:51:47;1.33;;;1.23;;
26098;SDS011;13860;52.370;6.764;2022-08-02T13:54:52;2.70;;;1.10;;
26098;SDS011;13860;52.370;6.764;2022-08-02T13:57:57;2.78;;;1.00;;
26098;SDS011;13860;52.370;6.764;2022-08-02T14:01:02;1.50;;;1.17;;
26098;SDS011;13860;52.370;6.764;2022-08-02T14:04:07;1.60;;;1.08;;
26098;SDS011;13860;52.370;6.764;2022-08-02T14:07:15;1.08;;;0.88;;
26098;SDS011;13860;52.370;6.764;2022-08-02T14:10:20;2.90;;;1.30;;
26098;SDS011;13860;52.370;6.764;2022-08-02T14:13:30;1.52;;;1.05;;
26098;SDS011;13860;52.370;6.764;2022-08-02T14:16:36;2.03;;;0.95;;
26098;SDS011;13860;52.370;6.764;2022-08-02T14:19:42;1.05;;;0.95;;
26098;SDS011;13860;52.370;6.764;2022-08-02T14:22:49;1.30;;;1.20;;
26098;SDS011;13860;52.370;6.764;2022-08-02T14:25:55;2.90;;;1.20;;
26098;SDS011;13860;52.370;6.764;2022-08-02T14:29:00;1.98;;;1.08;;
26098;SDS011;13860;52.370;6.764;2022-08-02T14:32:06;5.05;;;1.10;;
26098;SDS011;13860;52.370;6.764;2022-08-02T14:35:12;2.40;;;1.17;;
26098;SDS011;13860;52.370;6.764;2022-08-02T14:38:19;1.83;;;1.10;;
26098;SDS011;13860;52.370;6.764;2022-08-02T14:41:31;1.52;;;1.10;;
26098;SDS011;13860;52.370;6.764;2022-08-02T14:44:57;4.60;;;2.00;;
26098;SDS011;13860;52.370;6.764;2022-08-02T14:48:02;2.65;;;1.20;;
26098;SDS011;13860;52.370;6.764;2022-08-02T14:51:08;4.18;;;1.20;;
26098;SDS011;13860;52.370;6.764;2022-08-02T14:54:16;1.85;;;1.20;;
26098;SDS011;13860;52.370;6.764;2022-08-02T14:57:31;2.28;;;0.98;;
26098;SDS011;13860;52.370;6.764;2022-08-02T15:00:36;4.38;;;1.08;;
26098;SDS011;13860;52.370;6.764;2022-08-02T15:03:44;2.97;;;1.08;;
26098;SDS011;13860;52.370;6.764;2022-08-02T15:06:49;1.50;;;1.10;;
26098;SDS011;13860;52.370;6.764;2022-08-02T15:09:59;2.53;;;1.08;;
26098;SDS011;13860;52.370;6.764;2022-08-02T15:13:05;2.38;;;1.25;;
26098;SDS011;13860;52.370;6.764;2022-08-02T15:16:10;6.30;;;1.38;;
26098;SDS011;13860;52.370;6.764;2022-08-02T15:19:15;2.08;;;1.10;;
26098;SDS011;13860;52.370;6.764;2022-08-02T15:22:20;1.35;;;1.00;;
26098;SDS011;13860;52.370;6.764;2022-08-02T15:25:29;4.15;;;1.30;;
26098;SDS011;13860;52.370;6.764;2022-08-02T15:28:40;1.83;;;1.30;;
26098;SDS011;13860;52.370;6.764;2022-08-02T15:31:45;1.77;;;1.20;;
26098;SDS011;13860;52.370;6.764;2022-08-02T15:34:51;3.38;;;1.33;;
26098;SDS011;13860;52.370;6.764;2022-08-02T15:37:56;4.47;;;1.15;;
26098;SDS011;13860;52.370;6.764;2022-08-02T15:41:04;3.17;;;1.20;;
26098;SDS011;13860;52.370;6.764;2022-08-02T15:44:09;1.65;;;0.82;;
26098;SDS011;13860;52.370;6.764;2022-08-02T15:47:14;1.77;;;0.73;;
26098;SDS011;13860;52.370;6.764;2022-08-02T15:50:19;3.97;;;1.00;;
26098;SDS011;13860;52.370;6.764;2022-08-02T15:53:24;4.25;;;1.08;;
26098;SDS011;13860;52.370;6.764;2022-08-02T15:56:32;1.60;;;0.90;;
26098;SDS011;13860;52.370;6.764;2022-08-02T15:59:37;1.05;;;0.75;;
26098;SDS011;13860;52.370;6.764;2022-08-02T16:02:42;1.33;;;0.80;;
26098;SDS011;13860;52.370;6.764;2022-08-02T16:05:48;2.33;;;0.90;;
26098;SDS011;13860;52.370;6.764;2022-08-02T16:08:53;1.10;;;0.90;;
26098;SDS011;13860;52.370;6.764;2022-08-02T16:12:01;1.05;;;0.80;;
26098;SDS011;13860;52.370;6.764;2022-08-02T16:15:07;1.05;;;0.75;;
26098;SDS011;13860;52.370;6.764;2022-08-02T16:18:13;2.13;;;1.00;;
26098;SDS011;13860;52.370;6.764;2022-08-02T16:21:18;2.13;;;0.93;;
26098;SDS011;13860;52.370;6.764;2022-08-02T16:24:24;1.17;;;0.90;;
26098;SDS011;13860;52.370;6.764;2022-08-02T16:27:31;1.60;;;1.00;;
26098;SDS011;13860;52.370;6.764;2022-08-02T16:30:56;2.15;;;0.93;;
26098;SDS011;13860;52.370;6.764;2022-08-02T16:34:12;0.80;;;0.65;;
26098;SDS011;13860;52.370;6.764;2022-08-02T16:37:17;2.90;;;0.70;;
26098;SDS011;13860;52.370;6.764;2022-08-02T16:40:22;3.60;;;1.00;;
26098;SDS011;13860;52.370;6.764;2022-08-02T16:43:30;5.05;;;1.00;;
26098;SDS011;13860;52.370;6.764;2022-08-02T16:46:35;2.35;;;1.20;;
26098;SDS011;13860;52.370;6.764;2022-08-02T16:49:40;2.55;;;1.50;;
26098;SDS011;13860;52.370;6.764;2022-08-02T16:53:05;2.38;;;1.10;;
26098;SDS011;13860;52.370;6.764;2022-08-02T16:56:14;3.90;;;1.20;;
26098;SDS011;13860;52.370;6.764;2022-08-02T16:59:22;6.07;;;1.27;;
26098;SDS011;13860;52.370;6.764;2022-08-02T17:02:42;0.75;;;0.70;;
26098;SDS011;13860;52.370;6.764;2022-08-02T17:05:48;1.33;;;1.08;;
26098;SDS011;13860;52.370;6.764;2022-08-02T17:08:57;1.45;;;0.93;;
26098;SDS011;13860;52.370;6.764;2022-08-02T17:12:02;4.45;;;1.30;;
26098;SDS011;13860;52.370;6.764;2022-08-02T17:15:15;2.83;;;1.30;;
26098;SDS011;13860;52.370;6.764;2022-08-02T17:18:43;2.38;;;1.08;;
26098;SDS011;13860;52.370;6.764;2022-08-02T17:22:09;3.70;;;1.38;;
26098;SDS011;13860;52.370;6.764;2022-08-02T17:25:18;2.47;;;1.08;;
26098;SDS011;13860;52.370;6.764;2022-08-02T17:28:25;3.00;;;1.10;;
26098;SDS011;13860;52.370;6.764;2022-08-02T17:31:35;3.22;;;1.20;;
26098;SDS011;13860;52.370;6.764;2022-08-02T17:34:47;4.88;;;1.15;;
26098;SDS011;13860;52.370;6.764;2022-08-02T17:38:04;4.75;;;1.08;;
26098;SDS011;13860;52.370;6.764;2022-08-02T17:41:10;5.28;;;1.10;;
26098;SDS011;13860;52.370;6.764;2022-08-02T17:44:16;4.18;;;1.27;;
26098;SDS011;13860;52.370;6.764;2022-08-02T17:47:41;3.00;;;1.35;;
26098;SDS011;13860;52.370;6.764;2022-08-02T17:51:05;5.95;;;1.52;;
26098;SDS011;13860;52.370;6.764;2022-08-02T17:54:11;5.78;;;1.48;;
26098;SDS011;13860;52.370;6.764;2022-08-02T17:57:19;2.78;;;1.17;;
26098;SDS011;13860;52.370;6.764;2022-08-02T18:00:44;6.43;;;1.20;;
26098;SDS011;13860;52.370;6.764;2022-08-02T18:03:53;5.72;;;1.00;;
26098;SDS011;13860;52.370;6.764;2022-08-02T18:06:59;2.40;;;0.93;;
26098;SDS011;13860;52.370;6.764;2022-08-02T18:10:10;4.90;;;1.23;;
26098;SDS011;13860;52.370;6.764;2022-08-02T18:13:16;2.10;;;1.15;;
26098;SDS011;13860;52.370;6.764;2022-08-02T18:16:21;2.72;;;1.20;;
26098;SDS011;13860;52.370;6.764;2022-08-02T18:19:29;4.20;;;1.10;;
26098;SDS011;13860;52.370;6.764;2022-08-02T18:22:54;3.17;;;1.15;;
26098;SDS011;13860;52.370;6.764;2022-08-02T18:26:00;3.92;;;1.10;;
26098;SDS011;13860;52.370;6.764;2022-08-02T18:29:07;3.08;;;1.05;;
26098;SDS011;13860;52.370;6.764;2022-08-02T18:32:12;7.78;;;1.50;;
26098;SDS011;13860;52.370;6.764;2022-08-02T18:35:40;2.78;;;0.90;;
26098;SDS011;13860;52.370;6.764;2022-08-02T18:38:45;11.30;;;1.25;;
26098;SDS011;13860;52.370;6.764;2022-08-02T18:41:51;4.90;;;1.20;;
26098;SDS011;13860;52.370;6.764;2022-08-02T18:44:56;4.05;;;1.58;;
26098;SDS011;13860;52.370;6.764;2022-08-02T18:48:01;4.40;;;1.15;;
26098;SDS011;13860;52.370;6.764;2022-08-02T18:51:10;5.38;;;1.60;;
26098;SDS011;13860;52.370;6.764;2022-08-02T18:54:15;1.92;;;1.10;;
26098;SDS011;13860;52.370;6.764;2022-08-02T18:57:31;2.83;;;1.10;;
26098;SDS011;13860;52.370;6.764;2022-08-02T19:00:56;2.08;;;0.90;;
26098;SDS011;13860;52.370;6.764;2022-08-02T19:04:21;5.15;;;1.50;;
26098;SDS011;13860;52.370;6.764;2022-08-02T19:07:30;4.32;;;1.40;;
26098;SDS011;13860;52.370;6.764;2022-08-02T19:10:51;3.58;;;1.23;;
26098;SDS011;13860;52.370;6.764;2022-08-02T19:14:02;4.57;;;1.05;;
26098;SDS011;13860;52.370;6.764;2022-08-02T19:17:08;3.92;;;1.50;;
26098;SDS011;13860;52.370;6.764;2022-08-02T19:20:33;5.75;;;1.20;;